Time;durP1;ratioP1;P1;durP2;ratioP2;P2;SDS_P1;SDS_P2;PMS_P1;PMS_P2;Temp;Humidity;BMP_temperature;BMP_pressure;BME280_temperature;BME280_humidity;BME280_pressure;Samples;Min_cycle;Max_cycle;Signal;HPM_P1;HPM_P2
2022/10/26 04:04:24;;;;;;;2.90;2.70;;;12.30;99.90;;;;;;5695344;22;20950;-64
2022/10/26 04:06:49;;;;;;;2.50;2.13;;;12.30;99.90;;;;;;5013151;28;20437;-69
2022/10/26 04:09:15;;;;;;;2.37;2.17;;;12.30;99.90;;;;;;5026522;28;20178;-69
2022/10/26 04:11:40;;;;;;;2.30;2.20;;;12.40;99.90;;;;;;5032619;28;20656;-68
2022/10/26 04:14:06;;;;;;;2.90;2.53;;;12.40;99.90;;;;;;5014633;28;20207;-69
2022/10/26 04:16:31;;;;;;;2.00;1.90;;;12.40;99.90;;;;;;5033302;28;20172;-67
2022/10/26 04:18:57;;;;;;;2.77;2.57;;;12.40;99.90;;;;;;5032935;28;20244;-68
2022/10/26 04:21:23;;;;;;;2.90;2.67;;;12.30;99.90;;;;;;5033353;28;20181;-69
2022/10/26 04:23:48;;;;;;;6.70;2.63;;;12.40;99.90;;;;;;5022855;28;20190;-67
2022/10/26 04:26:14;;;;;;;2.47;2.30;;;12.40;99.90;;;;;;5014890;28;20231;-67
2022/10/26 04:28:39;;;;;;;2.30;2.00;;;12.40;99.90;;;;;;5032871;28;20181;-68
2022/10/26 04:31:05;;;;;;;3.43;2.80;;;12.40;99.90;;;;;;5032962;28;20179;-70
2022/10/26 04:33:30;;;;;;;2.97;2.00;;;12.40;99.90;;;;;;5014197;28;20218;-69
2022/10/26 04:36:02;;;;;;;2.30;2.17;;;12.40;99.90;;;;;;5032310;28;20193;-66
2022/10/26 04:38:27;;;;;;;2.90;2.70;;;12.50;99.90;;;;;;5020446;28;20173;-67
2022/10/26 04:40:53;;;;;;;9.10;2.70;;;12.50;99.90;;;;;;5013213;28;20412;-67
2022/10/26 04:43:19;;;;;;;2.40;2.20;;;12.50;99.90;;;;;;5012515;28;20657;-67
2022/10/26 04:45:44;;;;;;;6.40;3.87;;;12.50;99.90;;;;;;5012310;28;20198;-65
2022/10/26 04:48:11;;;;;;;3.03;2.73;;;12.50;99.90;;;;;;4994767;28;20224;-66
2022/10/26 04:50:38;;;;;;;2.77;2.57;;;12.50;99.90;;;;;;4995293;28;20177;-68
2022/10/26 04:53:06;;;;;;;2.57;2.37;;;12.40;99.90;;;;;;5024130;28;20526;-69
2022/10/26 04:55:32;;;;;;;3.07;2.80;;;12.50;99.90;;;;;;5036245;28;20500;-68
2022/10/26 04:57:57;;;;;;;3.07;2.10;;;12.50;99.90;;;;;;5016537;28;20490;-69
2022/10/26 05:00:23;;;;;;;4.20;2.63;;;12.50;99.90;;;;;;5016569;28;20410;-68
2022/10/26 05:02:48;;;;;;;2.37;2.27;;;12.60;99.90;;;;;;5016007;28;20190;-66
2022/10/26 05:05:14;;;;;;;4.23;2.80;;;12.70;99.90;;;;;;5016257;28;20591;-68
2022/10/26 05:07:40;;;;;;;2.87;2.10;;;12.80;99.90;;;;;;5025311;28;20235;-67
2022/10/26 05:10:06;;;;;;;2.30;2.10;;;12.80;99.90;;;;;;5036328;28;20188;-65
2022/10/26 05:12:32;;;;;;;2.37;2.20;;;12.90;99.90;;;;;;5017937;28;20189;-69
2022/10/26 05:14:58;;;;;;;2.07;1.97;;;13.00;99.90;;;;;;5034024;28;20568;-66
2022/10/26 05:17:26;;;;;;;4.47;2.67;;;13.10;99.90;;;;;;5035868;28;20573;-68
2022/10/26 05:19:54;;;;;;;3.20;2.30;;;13.10;99.90;;;;;;5035897;28;20512;-65
2022/10/26 05:22:26;;;;;;;3.37;2.10;;;13.10;99.90;;;;;;5026606;28;20422;-68
2022/10/26 05:24:51;;;;;;;2.43;2.23;;;13.20;99.90;;;;;;5015888;28;20797;-68
2022/10/26 05:27:17;;;;;;;2.73;2.53;;;13.20;99.90;;;;;;5016339;28;20451;-66
2022/10/26 05:29:43;;;;;;;2.73;2.20;;;13.30;99.90;;;;;;5016118;28;20651;-69
2022/10/26 05:32:08;;;;;;;4.00;2.23;;;13.30;99.90;;;;;;5015911;28;20769;-67
2022/10/26 05:34:34;;;;;;;2.73;2.53;;;13.30;99.90;;;;;;4997819;28;20214;-72
2022/10/26 05:36:59;;;;;;;2.50;1.70;;;13.30;99.90;;;;;;5023896;28;20285;-72
2022/10/26 05:39:25;;;;;;;2.10;1.90;;;13.30;99.90;;;;;;5035722;28;20637;-67
2022/10/26 05:41:51;;;;;;;2.17;1.93;;;13.40;99.90;;;;;;5035687;28;20172;-62
2022/10/26 05:44:16;;;;;;;2.63;2.10;;;13.50;99.90;;;;;;5034286;28;20273;-63
2022/10/26 05:46:42;;;;;;;2.57;2.37;;;13.50;99.90;;;;;;5035530;28;20691;-67
2022/10/26 05:49:07;;;;;;;2.47;2.13;;;13.50;99.90;;;;;;5035387;28;20652;-63
2022/10/26 05:51:36;;;;;;;2.67;2.00;;;13.50;99.90;;;;;;5029304;28;20182;-67
2022/10/26 05:54:01;;;;;;;2.17;1.97;;;13.60;99.90;;;;;;5014794;28;20625;-68
2022/10/26 05:56:35;;;;;;;3.53;2.40;;;13.60;99.90;;;;;;5015528;28;20441;-65
2022/10/26 05:59:02;;;;;;;5.23;2.57;;;13.60;99.90;;;;;;5015316;28;20707;-65
2022/10/26 06:01:47;;;;;;;7.30;2.10;;;13.60;99.90;;;;;;5015642;28;20467;-65
2022/10/26 06:04:28;;;;;;;2.53;2.30;;;13.60;99.90;;;;;;5014645;28;20433;-70
2022/10/26 06:06:55;;;;;;;2.20;2.00;;;13.70;99.90;;;;;;4997710;28;20451;-64
2022/10/26 06:09:21;;;;;;;2.80;2.60;;;13.70;99.90;;;;;;5015763;28;20425;-65
2022/10/26 06:11:47;;;;;;;3.60;2.17;;;13.70;99.90;;;;;;5015216;28;20408;-65
2022/10/26 06:14:13;;;;;;;2.40;2.23;;;13.70;99.90;;;;;;5014444;28;20214;-67
2022/10/26 06:16:45;;;;;;;2.87;2.60;;;13.70;99.90;;;;;;5015031;28;20521;-63
2022/10/26 06:19:36;;;;;;;3.37;2.70;;;13.80;99.90;;;;;;5015296;28;20409;-65
2022/10/26 06:22:40;;;;;;;4.37;3.10;;;13.80;99.90;;;;;;5014941;28;20436;-64
2022/10/26 06:25:23;;;;;;;2.27;2.10;;;13.90;99.90;;;;;;5014354;28;20442;-65
2022/10/26 06:28:20;;;;;;;2.40;2.30;;;13.90;99.90;;;;;;4997352;28;20453;-69
2022/10/26 06:30:46;;;;;;;2.63;1.87;;;14.00;99.90;;;;;;5014475;28;20425;-67
2022/10/26 06:33:13;;;;;;;1.80;1.70;;;14.00;99.90;;;;;;5014536;28;20406;-66
2022/10/26 06:35:39;;;;;;;2.80;2.43;;;14.00;99.90;;;;;;5014863;28;20193;-65
2022/10/26 06:38:12;;;;;;;2.57;2.37;;;14.00;99.90;;;;;;5014479;28;20467;-64
2022/10/26 06:40:41;;;;;;;2.47;1.87;;;14.00;99.90;;;;;;5015191;28;20400;-66
2022/10/26 06:43:21;;;;;;;3.10;2.17;;;14.00;99.90;;;;;;5014362;28;20739;-64
2022/10/26 06:45:52;;;;;;;2.93;2.70;;;14.00;99.90;;;;;;5014623;28;20475;-66
2022/10/26 06:48:23;;;;;;;2.83;2.63;;;14.00;99.90;;;;;;5016005;28;20468;-65
2022/10/26 06:50:52;;;;;;;2.77;2.33;;;14.00;99.90;;;;;;5014370;28;20444;-66
2022/10/26 06:54:05;;;;;;;2.57;2.30;;;14.00;99.90;;;;;;5014119;28;20421;-64
2022/10/26 06:56:31;;;;;;;2.30;2.10;;;14.00;99.90;;;;;;5014491;28;20437;-69
2022/10/26 06:59:07;;;;;;;5.03;2.43;;;14.00;99.90;;;;;;5014279;28;20408;-68
2022/10/26 07:01:32;;;;;;;3.20;2.60;;;14.00;99.90;;;;;;5014616;28;20421;-65
2022/10/26 07:03:58;;;;;;;2.73;2.40;;;13.90;99.90;;;;;;4996297;28;20470;-67
2022/10/26 07:06:27;;;;;;;2.50;2.30;;;13.90;99.90;;;;;;5014197;28;20194;-68
2022/10/26 07:08:52;;;;;;;2.60;2.30;;;13.90;99.90;;;;;;4996558;28;20649;-68
2022/10/26 07:11:18;;;;;;;3.10;2.80;;;13.80;99.90;;;;;;5014542;28;20446;-62
2022/10/26 07:13:44;;;;;;;4.63;2.57;;;13.80;99.90;;;;;;5013805;28;20191;-66
2022/10/26 07:16:09;;;;;;;2.83;2.63;;;13.80;99.90;;;;;;5014147;28;20237;-64
2022/10/26 07:18:35;;;;;;;2.57;2.37;;;13.70;99.90;;;;;;5014338;28;20171;-67
2022/10/26 07:21:00;;;;;;;3.00;2.40;;;13.80;99.90;;;;;;5013843;28;20170;-63
2022/10/26 07:23:26;;;;;;;4.87;3.10;;;13.80;99.90;;;;;;5013605;28;20169;-67
2022/10/26 07:25:51;;;;;;;2.03;1.93;;;13.80;99.90;;;;;;5014014;28;20750;-66
2022/10/26 07:28:17;;;;;;;4.77;2.80;;;13.80;99.90;;;;;;5014252;28;20178;-65
2022/10/26 07:30:43;;;;;;;2.60;2.40;;;13.90;99.90;;;;;;5013927;28;20515;-64
2022/10/26 07:33:13;;;;;;;2.70;2.23;;;13.90;99.90;;;;;;5013434;28;20174;-66
2022/10/26 07:35:39;;;;;;;3.63;2.73;;;14.00;99.90;;;;;;4996263;28;20651;-63
2022/10/26 07:38:05;;;;;;;2.10;2.00;;;14.10;99.90;;;;;;5013924;28;20405;-69
2022/10/26 07:40:31;;;;;;;2.30;2.10;;;14.00;99.90;;;;;;5013779;28;20874;-66
2022/10/26 07:42:58;;;;;;;1.93;1.83;;;14.10;99.90;;;;;;5013501;28;20398;-68
2022/10/26 07:45:25;;;;;;;3.63;2.77;;;14.20;99.90;;;;;;4996243;28;20273;-65
2022/10/26 07:47:51;;;;;;;2.70;2.50;;;14.20;99.90;;;;;;5013497;28;20444;-63
2022/10/26 07:50:17;;;;;;;4.00;2.90;;;14.30;99.90;;;;;;5013644;28;20404;-67
2022/10/26 07:52:42;;;;;;;2.80;2.63;;;14.30;99.90;;;;;;4995821;28;20225;-66
2022/10/26 07:55:09;;;;;;;5.90;2.47;;;14.40;99.90;;;;;;5013493;28;20415;-67
2022/10/26 07:57:35;;;;;;;4.00;3.50;;;14.40;99.90;;;;;;5013623;28;20186;-72
2022/10/26 08:00:01;;;;;;;4.37;3.43;;;14.50;99.90;;;;;;5013783;28;20406;-67
2022/10/26 08:02:26;;;;;;;2.10;2.00;;;14.60;99.90;;;;;;5013171;28;20171;-68
2022/10/26 08:04:52;;;;;;;2.10;1.90;;;14.80;99.90;;;;;;4995467;28;20198;-67
2022/10/26 08:07:17;;;;;;;3.00;2.70;;;14.90;99.90;;;;;;5013688;28;20665;-66
2022/10/26 08:09:43;;;;;;;2.87;2.57;;;15.10;99.90;;;;;;5013383;28;20202;-65
2022/10/26 08:12:08;;;;;;;2.23;1.83;;;15.30;99.90;;;;;;5013393;28;20179;-69
2022/10/26 08:14:34;;;;;;;2.20;2.00;;;15.50;99.90;;;;;;5012610;28;20694;-65
2022/10/26 08:17:00;;;;;;;4.13;1.90;;;15.60;99.90;;;;;;5013276;28;20532;-70
2022/10/26 08:19:25;;;;;;;1.83;1.70;;;15.80;99.90;;;;;;5013138;28;20179;-68
2022/10/26 08:21:51;;;;;;;2.50;2.20;;;16.00;99.90;;;;;;5013316;28;20184;-66
2022/10/26 08:24:16;;;;;;;2.30;2.10;;;16.20;99.90;;;;;;5012843;28;20684;-67
2022/10/26 08:26:42;;;;;;;5.40;3.00;;;16.30;99.90;;;;;;5013214;28;20528;-63
2022/10/26 08:29:08;;;;;;;3.50;3.23;;;16.40;99.90;;;;;;4998459;28;20644;-63
2022/10/26 08:31:33;;;;;;;1.87;1.77;;;16.40;99.90;;;;;;4999531;28;20666;-63
2022/10/26 08:34:00;;;;;;;2.13;2.00;;;16.50;99.90;;;;;;5016666;28;20200;-67
2022/10/26 08:36:27;;;;;;;2.90;2.30;;;16.50;99.90;;;;;;4999683;28;20224;-68
2022/10/26 08:38:53;;;;;;;3.43;2.50;;;16.60;99.90;;;;;;5017126;28;20818;-65
2022/10/26 08:41:42;;;;;;;1.83;1.73;;;16.60;99.90;;;;;;5016745;28;20402;-64
2022/10/26 08:44:13;;;;;;;4.53;2.23;;;16.70;99.90;;;;;;5016767;28;20201;-68
2022/10/26 08:46:44;;;;;;;2.43;2.23;;;16.70;99.90;;;;;;5016774;28;20424;-67
2022/10/26 08:49:20;;;;;;;3.90;2.17;;;16.70;99.90;;;;;;5016976;28;20988;-66
2022/10/26 08:51:49;;;;;;;4.20;2.63;;;16.70;99.90;;;;;;5016649;28;20418;-69
2022/10/26 08:54:38;;;;;;;6.50;2.57;;;16.60;99.90;;;;;;5016179;28;20472;-65
2022/10/26 08:57:17;;;;;;;2.40;1.90;;;16.60;99.90;;;;;;5013489;28;20415;-68
2022/10/26 08:59:47;;;;;;;2.07;1.90;;;16.50;99.90;;;;;;4999034;28;20416;-64
2022/10/26 09:02:15;;;;;;;2.03;1.87;;;16.60;99.90;;;;;;4998887;28;20412;-63
2022/10/26 09:04:41;;;;;;;2.30;2.10;;;16.60;99.90;;;;;;5015827;28;20432;-64
2022/10/26 09:07:39;;;;;;;2.10;1.83;;;16.70;99.90;;;;;;5016560;28;20398;-62
2022/10/26 09:10:19;;;;;;;2.00;1.90;;;16.80;99.90;;;;;;4998829;28;20986;-65
2022/10/26 09:13:07;;;;;;;2.57;1.90;;;16.90;99.90;;;;;;5016457;28;21102;-67
2022/10/26 09:15:44;;;;;;;2.10;1.83;;;17.00;99.90;;;;;;4998597;28;20427;-62
2022/10/26 09:18:46;;;;;;;1.87;1.77;;;17.20;99.90;;;;;;5016393;28;20375;-69
2022/10/26 09:21:25;;;;;;;1.80;1.70;;;17.50;99.90;;;;;;5012268;28;20773;-65
2022/10/26 09:24:03;;;;;;;2.07;1.90;;;17.80;99.90;;;;;;5015644;28;20440;-68
2022/10/26 09:26:37;;;;;;;2.43;2.20;;;18.30;99.90;;;;;;5016067;28;20425;-63
2022/10/26 09:29:05;;;;;;;1.67;1.50;;;18.70;99.90;;;;;;5016134;28;20913;-67
2022/10/26 09:31:38;;;;;;;2.27;2.13;;;19.10;99.90;;;;;;5015955;28;20410;-68
2022/10/26 09:34:05;;;;;;;2.00;1.57;;;19.40;99.90;;;;;;5015603;28;20460;-69
2022/10/26 09:36:32;;;;;;;2.67;2.57;;;19.70;99.90;;;;;;5016023;28;20797;-66
2022/10/26 09:39:18;;;;;;;5.90;1.93;;;20.00;99.90;;;;;;5015193;28;20413;-66
2022/10/26 09:41:54;;;;;;;3.10;1.90;;;20.10;99.90;;;;;;5015618;28;20418;-67
2022/10/26 09:44:48;;;;;;;3.50;1.83;;;20.40;99.90;;;;;;5015276;28;20533;-66
2022/10/26 09:47:22;;;;;;;3.33;1.83;;;20.70;99.90;;;;;;5015582;28;20381;-65
2022/10/26 09:49:57;;;;;;;1.67;1.40;;;21.10;99.90;;;;;;5015587;28;20408;-68
2022/10/26 09:52:23;;;;;;;1.63;1.53;;;21.80;99.90;;;;;;4997891;28;20776;-66
2022/10/26 09:54:48;;;;;;;2.70;2.50;;;22.60;99.90;;;;;;5015070;28;20449;-68
2022/10/26 09:57:17;;;;;;;2.33;1.70;;;23.40;99.90;;;;;;5015601;28;20174;-69
2022/10/26 09:59:46;;;;;;;2.90;2.70;;;24.30;99.90;;;;;;5015682;28;20202;-63
2022/10/26 10:02:32;;;;;;;4.30;1.57;;;25.10;99.90;;;;;;5016153;28;20788;-70
2022/10/26 10:04:58;;;;;;;2.90;2.67;;;25.90;99.30;;;;;;5015102;28;20823;-64
2022/10/26 10:07:24;;;;;;;2.87;1.50;;;26.20;97.50;;;;;;5015643;28;20453;-66
2022/10/26 10:10:16;;;;;;;1.40;1.30;;;26.40;98.30;;;;;;5015428;28;20171;-67
2022/10/26 10:12:42;;;;;;;1.50;1.40;;;26.70;96.60;;;;;;5015146;28;20651;-68
2022/10/26 10:15:37;;;;;;;1.80;1.70;;;26.90;96.40;;;;;;5014899;28;20538;-67
2022/10/26 10:18:02;;;;;;;2.20;1.50;;;26.80;95.40;;;;;;5010403;28;20183;-66
2022/10/26 10:20:32;;;;;;;1.67;1.57;;;26.40;95.00;;;;;;4997407;28;20450;-67
2022/10/26 10:23:03;;;;;;;4.30;1.63;;;25.80;95.50;;;;;;5014734;28;20198;-66
2022/10/26 10:25:35;;;;;;;1.70;1.60;;;25.10;96.50;;;;;;5014885;28;20412;-63
2022/10/26 10:28:18;;;;;;;5.23;3.10;;;24.90;97.40;;;;;;5015161;28;20377;-64
2022/10/26 10:30:53;;;;;;;2.57;2.20;;;24.60;97.30;;;;;;5014816;28;20372;-64
2022/10/26 10:33:18;;;;;;;3.40;2.80;;;24.20;98.00;;;;;;5014588;28;20436;-66
2022/10/26 10:35:51;;;;;;;3.83;2.20;;;23.90;98.80;;;;;;5014585;28;20449;-63
2022/10/26 10:38:22;;;;;;;8.10;2.17;;;23.70;99.50;;;;;;5014890;28;20218;-70
2022/10/26 10:40:56;;;;;;;4.33;2.87;;;23.40;99.90;;;;;;5014784;28;20379;-64
2022/10/26 10:43:22;;;;;;;4.20;2.50;;;23.40;99.90;;;;;;5014441;28;20447;-67
2022/10/26 10:45:50;;;;;;;4.90;1.80;;;23.70;99.90;;;;;;5014543;28;20461;-66
2022/10/26 10:48:25;;;;;;;1.73;1.63;;;24.00;99.70;;;;;;5014492;28;20418;-64
2022/10/26 10:50:59;;;;;;;1.83;1.47;;;24.10;99.30;;;;;;5014529;28;20992;-63
2022/10/26 10:53:31;;;;;;;3.30;1.97;;;24.30;99.10;;;;;;5014113;28;20442;-63
2022/10/26 10:56:05;;;;;;;5.00;1.77;;;24.40;99.20;;;;;;5014150;28;20487;-65
2022/10/26 10:58:46;;;;;;;4.80;1.60;;;24.50;98.50;;;;;;5012973;28;20813;-65
2022/10/26 11:01:15;;;;;;;1.50;1.37;;;24.30;97.80;;;;;;5012338;28;20378;-63
2022/10/26 11:04:04;;;;;;;1.37;1.27;;;24.10;98.80;;;;;;5012148;28;20748;-66
2022/10/26 11:06:35;;;;;;;5.50;1.83;;;23.90;98.80;;;;;;5009081;28;20437;-65
2022/10/26 11:09:09;;;;;;;4.53;2.53;;;23.60;98.60;;;;;;5012441;28;20384;-67
2022/10/26 11:11:43;;;;;;;1.17;1.10;;;23.50;99.00;;;;;;5012459;28;20410;-67
2022/10/26 11:14:24;;;;;;;1.80;1.70;;;23.30;99.40;;;;;;5013491;28;20857;-65
2022/10/26 11:17:25;;;;;;;1.80;1.70;;;23.10;99.90;;;;;;5014222;28;20774;-65
2022/10/26 11:19:56;;;;;;;2.80;2.20;;;22.80;99.90;;;;;;5009476;28;20991;-66
2022/10/26 11:22:31;;;;;;;2.47;2.13;;;22.70;99.90;;;;;;5013925;28;20399;-63
2022/10/26 11:25:10;;;;;;;2.63;1.63;;;22.70;99.90;;;;;;5013948;28;20873;-65
2022/10/26 11:27:49;;;;;;;2.27;1.50;;;22.80;99.90;;;;;;4996549;28;20441;-66
2022/10/26 11:30:20;;;;;;;2.87;2.40;;;23.00;99.90;;;;;;5014006;28;20463;-67
2022/10/26 11:33:07;;;;;;;3.60;2.60;;;23.10;99.90;;;;;;5013642;28;20398;-66
2022/10/26 11:36:02;;;;;;;2.47;2.27;;;23.20;99.90;;;;;;5013932;28;20829;-68
2022/10/26 11:38:50;;;;;;;4.83;1.80;;;23.30;99.80;;;;;;4998203;28;20463;-63
2022/10/26 11:41:16;;;;;;;5.43;2.10;;;23.30;99.90;;;;;;5013960;28;20409;-64
2022/10/26 11:43:46;;;;;;;1.30;1.20;;;23.30;99.90;;;;;;5013350;28;20406;-62
2022/10/26 11:46:19;;;;;;;1.23;1.20;;;23.40;99.50;;;;;;5013809;28;20197;-68
2022/10/26 11:48:58;;;;;;;1.50;1.30;;;23.50;99.90;;;;;;5013770;28;20438;-63
2022/10/26 11:51:58;;;;;;;3.10;1.70;;;23.70;99.50;;;;;;5013742;28;20410;-65
2022/10/26 11:54:29;;;;;;;1.50;1.40;;;23.80;98.80;;;;;;5013387;28;20461;-63
2022/10/26 11:56:57;;;;;;;3.67;3.00;;;23.90;98.90;;;;;;5013723;28;20394;-67
2022/10/26 11:59:26;;;;;;;3.60;2.60;;;23.90;99.00;;;;;;4995178;28;20457;-65
2022/10/26 12:02:03;;;;;;;2.83;1.93;;;23.80;98.50;;;;;;5013069;28;20373;-65
2022/10/26 12:04:32;;;;;;;1.83;1.73;;;23.80;98.30;;;;;;5012589;28;20404;-67
2022/10/26 12:06:59;;;;;;;1.70;1.50;;;23.70;98.30;;;;;;5013132;28;20869;-63
2022/10/26 12:09:31;;;;;;;1.67;1.57;;;23.70;98.40;;;;;;5013159;28;20384;-64
2022/10/26 12:12:45;;;;;;;2.97;1.27;;;23.60;98.20;;;;;;5013305;28;20372;-67
2022/10/26 12:15:22;;;;;;;2.00;1.33;;;23.60;98.30;;;;;;4993653;28;20561;-65
2022/10/26 12:18:19;;;;;;;1.37;1.27;;;23.50;98.30;;;;;;5011752;28;20390;-64
2022/10/26 12:20:45;;;;;;;2.10;1.90;;;23.40;98.40;;;;;;5011862;28;20416;-66
2022/10/26 12:23:11;;;;;;;2.07;1.60;;;23.30;99.10;;;;;;5011625;28;20807;-67
2022/10/26 12:25:38;;;;;;;1.77;1.30;;;23.20;99.00;;;;;;5011679;28;20206;-66
2022/10/26 12:28:03;;;;;;;2.20;1.53;;;23.20;99.40;;;;;;5011802;28;20531;-67
2022/10/26 12:30:32;;;;;;;2.77;1.30;;;23.20;99.60;;;;;;5011677;28;20909;-67
2022/10/26 12:33:04;;;;;;;1.00;1.00;;;23.20;99.40;;;;;;5011388;28;20179;-66
2022/10/26 12:35:34;;;;;;;1.73;1.63;;;23.20;99.40;;;;;;5011654;28;20457;-66
2022/10/26 12:38:20;;;;;;;1.63;1.53;;;23.30;99.90;;;;;;5013191;28;20384;-63
2022/10/26 12:40:46;;;;;;;1.00;0.90;;;23.40;99.90;;;;;;5012480;28;20413;-64
2022/10/26 12:43:15;;;;;;;1.83;1.50;;;23.50;99.90;;;;;;5012718;28;20996;-61
2022/10/26 12:46:12;;;;;;;4.13;1.17;;;23.50;99.80;;;;;;5012997;28;20977;-67
2022/10/26 12:48:46;;;;;;;1.90;1.50;;;23.40;98.70;;;;;;4978999;28;20418;-63
2022/10/26 12:51:20;;;;;;;5.87;1.57;;;23.20;99.30;;;;;;5012937;28;20502;-64
2022/10/26 12:54:10;;;;;;;0.87;0.87;;;23.00;99.70;;;;;;5012530;28;20456;-66
2022/10/26 12:57:09;;;;;;;1.70;1.60;;;23.00;99.80;;;;;;5013099;28;20513;-67
2022/10/26 12:59:48;;;;;;;1.33;1.13;;;23.00;99.90;;;;;;5012434;28;20413;-64
2022/10/26 13:02:22;;;;;;;1.77;1.40;;;23.10;99.90;;;;;;5012961;28;20397;-68
2022/10/26 13:05:15;;;;;;;1.50;1.27;;;23.20;99.70;;;;;;4994631;28;20451;-65
2022/10/26 13:07:41;;;;;;;3.60;1.47;;;23.30;99.90;;;;;;4997435;28;20436;-62
2022/10/26 13:10:12;;;;;;;2.07;1.20;;;23.30;99.90;;;;;;5012702;28;20841;-68
2022/10/26 13:12:46;;;;;;;2.73;1.40;;;23.20;99.30;;;;;;5012690;28;20171;-65
2022/10/26 13:15:28;;;;;;;5.53;1.30;;;23.20;99.50;;;;;;5015454;28;20526;-68
2022/10/26 13:18:19;;;;;;;2.20;1.50;;;23.10;99.90;;;;;;5016529;28;20380;-63
2022/10/26 13:21:06;;;;;;;1.30;1.20;;;22.90;98.90;;;;;;5016755;28;20391;-65
2022/10/26 13:23:35;;;;;;;1.67;1.57;;;22.80;99.30;;;;;;4996467;28;20416;-63
2022/10/26 13:26:16;;;;;;;1.20;1.10;;;22.90;99.60;;;;;;5014096;28;20404;-63
2022/10/26 13:28:46;;;;;;;1.20;1.10;;;22.90;99.10;;;;;;5014148;28;20434;-68
2022/10/26 13:31:22;;;;;;;4.37;1.20;;;22.80;99.40;;;;;;5014205;28;20821;-67
2022/10/26 13:33:51;;;;;;;1.40;1.30;;;22.70;99.50;;;;;;5013800;28;20489;-65
2022/10/26 13:36:36;;;;;;;3.73;2.10;;;22.70;99.90;;;;;;5014073;28;20376;-64
2022/10/26 13:39:14;;;;;;;3.60;1.30;;;22.60;99.60;;;;;;5016331;28;20862;-66
2022/10/26 13:41:44;;;;;;;1.47;1.30;;;22.50;99.80;;;;;;5016231;28;20409;-63
2022/10/26 13:44:27;;;;;;;1.57;1.47;;;22.50;99.90;;;;;;5015700;28;20400;-67
2022/10/26 13:46:59;;;;;;;1.20;1.10;;;22.50;99.70;;;;;;5015978;28;20393;-64
2022/10/26 13:49:46;;;;;;;1.70;1.60;;;22.50;99.90;;;;;;4998283;28;20502;-62
2022/10/26 13:52:34;;;;;;;4.80;2.07;;;22.50;99.90;;;;;;5016134;28;20448;-65
2022/10/26 13:55:51;;;;;;;1.73;1.63;;;22.50;99.90;;;;;;5015599;28;20527;-64
2022/10/26 13:58:44;;;;;;;2.37;1.50;;;22.40;99.80;;;;;;4998950;28;20402;-67
2022/10/26 14:01:10;;;;;;;2.20;1.23;;;22.20;99.90;;;;;;5015773;28;20510;-67
2022/10/26 14:03:36;;;;;;;1.00;0.97;;;22.00;99.90;;;;;;5015378;28;20870;-64
2022/10/26 14:06:29;;;;;;;1.60;1.47;;;21.90;99.90;;;;;;5015656;28;20218;-63
2022/10/26 14:08:58;;;;;;;4.77;1.50;;;21.80;99.90;;;;;;4997835;28;20406;-65
2022/10/26 14:11:35;;;;;;;2.80;1.80;;;21.80;99.90;;;;;;4998006;28;20383;-64
2022/10/26 14:14:03;;;;;;;1.80;1.27;;;21.70;99.90;;;;;;5015125;28;20461;-68
2022/10/26 14:16:31;;;;;;;2.70;1.33;;;21.60;99.90;;;;;;5015493;28;20393;-66
2022/10/26 14:18:57;;;;;;;2.43;2.23;;;21.50;99.90;;;;;;5015192;28;20395;-62
2022/10/26 14:21:23;;;;;;;4.57;1.60;;;21.40;99.90;;;;;;5015426;28;20381;-61
2022/10/26 14:23:54;;;;;;;4.67;1.40;;;21.40;99.90;;;;;;5014750;28;20173;-65
2022/10/26 14:26:27;;;;;;;2.70;1.90;;;21.30;99.90;;;;;;5014672;28;20261;-68
2022/10/26 14:28:56;;;;;;;2.40;1.80;;;21.20;99.90;;;;;;5015201;28;20531;-67
2022/10/26 14:31:27;;;;;;;5.03;1.40;;;21.20;99.90;;;;;;5015173;28;20483;-67
2022/10/26 14:33:55;;;;;;;1.83;1.63;;;21.10;99.90;;;;;;4996901;28;20547;-66
2022/10/26 14:36:37;;;;;;;2.13;1.80;;;21.00;99.90;;;;;;5015127;28;20439;-68
2022/10/26 14:39:14;;;;;;;2.37;1.43;;;20.90;99.90;;;;;;4997466;28;20410;-66
2022/10/26 14:41:41;;;;;;;3.50;2.07;;;20.90;99.90;;;;;;5014976;28;20521;-65
2022/10/26 14:44:18;;;;;;;3.73;1.80;;;20.90;99.90;;;;;;5014348;28;20391;-68
2022/10/26 14:46:44;;;;;;;2.00;1.30;;;20.90;99.90;;;;;;5015245;28;20492;-62
2022/10/26 14:49:21;;;;;;;1.70;1.60;;;20.90;99.90;;;;;;5015074;28;20759;-65
2022/10/26 14:51:48;;;;;;;2.27;1.97;;;20.80;99.90;;;;;;5014792;28;20449;-61
2022/10/26 14:54:25;;;;;;;2.40;1.83;;;20.80;99.90;;;;;;5014077;28;20473;-63
2022/10/26 14:56:52;;;;;;;3.97;1.70;;;20.70;99.90;;;;;;5014404;28;20409;-62
2022/10/26 14:59:23;;;;;;;1.87;1.47;;;20.70;99.90;;;;;;5014398;28;20417;-63
2022/10/26 15:02:14;;;;;;;4.00;1.80;;;20.70;99.90;;;;;;5014503;28;20385;-66
2022/10/26 15:04:41;;;;;;;3.10;1.80;;;20.70;99.90;;;;;;5013877;28;20437;-68
2022/10/26 15:07:14;;;;;;;2.87;2.60;;;20.70;99.90;;;;;;5014593;28;20417;-64
2022/10/26 15:09:48;;;;;;;2.93;1.90;;;20.70;99.90;;;;;;5014471;28;20404;-65
2022/10/26 15:12:24;;;;;;;2.20;1.97;;;20.60;99.90;;;;;;5014440;28;20442;-66
2022/10/26 15:14:50;;;;;;;3.30;2.27;;;20.60;99.90;;;;;;5014034;28;20457;-67
2022/10/26 15:17:26;;;;;;;3.17;2.90;;;20.50;99.90;;;;;;5014256;28;20416;-66
2022/10/26 15:19:53;;;;;;;4.33;2.63;;;20.50;99.90;;;;;;4996654;28;20409;-68
2022/10/26 15:22:27;;;;;;;3.73;2.40;;;20.50;99.90;;;;;;4996748;28;20849;-67
2022/10/26 15:24:56;;;;;;;2.50;2.30;;;20.50;99.90;;;;;;5013958;28;20434;-67
2022/10/26 15:27:23;;;;;;;3.70;3.10;;;20.40;99.90;;;;;;5014131;28;20500;-63
2022/10/26 15:30:09;;;;;;;2.30;1.70;;;20.40;99.90;;;;;;5014255;28;20404;-64
2022/10/26 15:32:35;;;;;;;2.67;2.17;;;20.40;99.90;;;;;;5013873;28;20507;-64
2022/10/26 15:35:18;;;;;;;1.90;1.77;;;20.40;99.90;;;;;;5013763;28;20485;-63
2022/10/26 15:37:49;;;;;;;3.83;2.27;;;20.40;99.90;;;;;;5012553;28;20171;-63
2022/10/26 15:40:15;;;;;;;2.70;2.20;;;20.40;99.90;;;;;;5013720;28;20596;-65
2022/10/26 15:42:44;;;;;;;3.20;2.90;;;20.30;99.90;;;;;;5013560;28;20758;-67
2022/10/26 15:45:22;;;;;;;5.97;3.10;;;20.30;99.90;;;;;;5013520;28;20430;-68
2022/10/26 15:47:50;;;;;;;3.70;2.87;;;20.20;99.90;;;;;;5013640;28;20467;-67
2022/10/26 15:50:19;;;;;;;4.13;2.67;;;20.10;99.90;;;;;;5013524;28;20925;-62
2022/10/26 15:52:45;;;;;;;2.83;1.47;;;20.00;99.90;;;;;;4996177;28;20521;-68
2022/10/26 15:55:10;;;;;;;4.50;1.87;;;19.90;99.90;;;;;;5013666;28;20988;-69
2022/10/26 15:57:37;;;;;;;2.73;2.13;;;19.80;99.90;;;;;;5013763;28;20712;-67
2022/10/26 16:00:04;;;;;;;4.70;1.50;;;19.70;99.90;;;;;;5013594;28;20229;-70
2022/10/26 16:02:31;;;;;;;1.10;1.10;;;19.60;99.90;;;;;;5013232;28;20406;-66
2022/10/26 16:04:57;;;;;;;3.00;2.43;;;19.50;99.90;;;;;;5013084;28;20540;-67
2022/10/26 16:07:25;;;;;;;4.57;2.50;;;19.40;99.90;;;;;;5013366;28;20457;-65
2022/10/26 16:09:51;;;;;;;8.90;3.07;;;19.30;99.90;;;;;;5013334;28;20182;-66
2022/10/26 16:12:16;;;;;;;1.50;1.40;;;19.20;99.90;;;;;;5013396;28;20505;-66
2022/10/26 16:14:42;;;;;;;1.60;1.50;;;19.10;99.90;;;;;;4994781;28;20203;-64
2022/10/26 16:17:07;;;;;;;5.03;1.93;;;19.00;99.90;;;;;;5013479;28;20186;-66
2022/10/26 16:19:33;;;;;;;2.60;2.37;;;18.90;99.90;;;;;;5013041;28;20258;-66
2022/10/26 16:22:00;;;;;;;3.77;3.43;;;18.80;99.90;;;;;;4995656;28;20171;-66
2022/10/26 16:24:29;;;;;;;7.43;3.17;;;18.70;99.90;;;;;;5012885;28;20922;-67
2022/10/26 16:26:55;;;;;;;3.70;2.60;;;18.60;99.90;;;;;;5013259;28;20489;-66
2022/10/26 16:29:21;;;;;;;3.10;2.43;;;18.50;99.90;;;;;;5013102;28;20424;-65
2022/10/26 16:31:47;;;;;;;6.00;2.07;;;18.40;99.90;;;;;;5013190;28;20206;-66
2022/10/26 16:34:13;;;;;;;1.80;1.70;;;18.30;99.90;;;;;;5012615;28;20202;-68
2022/10/26 16:36:38;;;;;;;4.20;1.50;;;18.30;99.90;;;;;;5013046;28;20804;-73
2022/10/26 16:39:05;;;;;;;1.33;1.33;;;18.20;99.90;;;;;;5013115;28;20439;-72
2022/10/26 16:41:31;;;;;;;7.80;2.47;;;18.10;99.90;;;;;;5013012;28;20627;-72
2022/10/26 16:43:56;;;;;;;2.50;2.20;;;18.00;99.90;;;;;;5026450;28;20410;-76
2022/10/26 16:46:23;;;;;;;1.43;1.33;;;18.00;99.90;;;;;;5019700;28;20179;-74
2022/10/26 16:48:49;;;;;;;2.90;2.40;;;17.80;99.90;;;;;;5031306;28;20459;-75
2022/10/26 16:51:20;;;;;;;2.10;2.00;;;17.80;99.90;;;;;;4999010;28;20524;-73
2022/10/26 16:53:47;;;;;;;2.20;2.10;;;17.70;99.90;;;;;;5016576;28;20761;-74
2022/10/26 16:56:16;;;;;;;1.90;1.80;;;17.50;99.90;;;;;;5016361;28;20396;-74
2022/10/26 16:58:41;;;;;;;2.60;2.07;;;17.40;99.90;;;;;;5016626;28;20503;-75
2022/10/26 17:01:08;;;;;;;4.43;2.00;;;17.40;99.90;;;;;;5021946;28;20416;-72
2022/10/26 17:03:34;;;;;;;2.27;2.17;;;17.30;99.90;;;;;;4998665;28;20635;-75
2022/10/26 17:06:02;;;;;;;3.20;2.00;;;17.20;99.90;;;;;;5025467;28;20453;-72
2022/10/26 17:08:30;;;;;;;2.90;2.63;;;17.20;99.90;;;;;;5036291;28;20763;-73
2022/10/26 17:11:02;;;;;;;5.33;2.33;;;17.10;99.90;;;;;;5029089;28;20761;-72
2022/10/26 17:13:28;;;;;;;11.03;3.90;;;17.10;99.90;;;;;;5035762;28;20425;-73
2022/10/26 17:15:53;;;;;;;4.43;2.67;;;17.00;99.90;;;;;;5028562;28;20826;-71